Toronto, Ontario

3:40 AM EDT on September 29, 2016 (GMT -0400)
| | Change Station

Elev -9999 ft 0.00 °N, 0.00 °E | Updated

Mostly Cloudy
Mostly Cloudy
62 °F
Feels Like 62 °F
N
16
Wind Variable Wind from ENE
Gusts 23 mph

Today
High -- | Low -- °F
--% Chance of Precip.
Yesterday
High -- | Low -- °F
Precip. -- in
Pressure 30.18 in
Visibility 9.0 miles
Clouds Few 7000 ft
Dew Point 54 °F
Humidity 76%
Rainfall --
Snow Depth Not available.
7:13 AM 7:01 PM
Waning Crescent, 3% visible
METAR CYTZ 290700Z AUTO 08020G30KT 9SM FEW070 19/14 A3018 RMK SLP220 DENSITY ALT 400FT
Pressure 30.18 in
Visibility 9.0 miles
Clouds Few 7000 ft
Dew Point 54 °F
Humidity 76%
Rainfall --
Snow Depth Not available.
7:13 AM 7:01 PM
Waning Crescent, 3% visible
METAR CYTZ 290700Z AUTO 08020G30KT 9SM FEW070 19/14 A3018 RMK SLP220 DENSITY ALT 400FT

10-Day Weather Forecast

Almanac

Astronomy

Sep. 29, 2016 Rise Set
Actual Time
Civil Twilight
Nautical Twilight
Astronomical Twilight
Moon
Length of Visible Light
Length of Day
Tomorrow will be .
, % of the Moon is Illuminated

Today's Extremes

Country Highs Country Lows

Community

WunderPhotos

Upload Photos

1,942,446 photos uploaded!

WunderBlog® & News

Nearby

Air Quality

  Air Quality AQ Index Pollutant
Not available.

Snow Depth

Station Depth Elevation

Earthquake Activity

City Distance Mag. Time & Date
Minimum magnitude displayed is 2.5.

Coastal Water Temperatures

Place Temperature

Stations

Nearby Weather Stations

Station Location Temp. Windchill Dew Point Humidity Wind Precip. Elev Updated Type
                   

Watches & Warnings

There are currently no watches in effect.